FLX721 MMUN-MPTO
Flight info
| Callsign | FLX721 |
|---|---|
| Flight time | 2h 19m |
| Altitude | 37000 |
| Route | TAKUX2A TAKUX UM782 OMIRO UN420 PELRA DCT SPP DCT MORLI OSUPA2C |
| Aircraft | B77W/H-SDE1E2E3FGHIJ2J3J4J5M1RWXY/LB1D1 |
Departure
| Time | 2026-05-07 18:52 |
|---|---|
| Airport | Cancún International Airport (MMUN) |
Arrival
| Time | 2026-05-07 21:11 |
|---|---|
| Airport | Tocumen International Airport (MPTO) |
| Time | Latitude | Longitude | Altitude | Speed | Heading |
|---|---|---|---|---|---|
| 2026-05-07 18:31 | 21.04047 | -86.87871 | 31 ft | 0 kts | 304° |
| 2026-05-07 18:43 | 21.04045 | -86.87869 | 31 ft | 2 kts | 303° |
| 2026-05-07 18:43 | 21.04038 | -86.87854 | 31 ft | 2 kts | 284° |
| 2026-05-07 18:43 | 21.04036 | -86.87838 | 31 ft | 2 kts | 266° |
| 2026-05-07 18:44 | 21.04039 | -86.87823 | 31 ft | 2 kts | 250° |
| 2026-05-07 18:44 | 21.04045 | -86.87808 | 31 ft | 2 kts | 233° |
| 2026-05-07 18:44 | 21.04056 | -86.87796 | 31 ft | 2 kts | 217° |
| 2026-05-07 18:44 | 21.04061 | -86.87792 | 32 ft | 0 kts | 212° |
| 2026-05-07 18:46 | 21.04060 | -86.87793 | 31 ft | 0 kts | 212° |
| 2026-05-07 18:47 | 21.04047 | -86.87802 | 31 ft | 0 kts | 212° |
| 2026-05-07 18:47 | 21.04042 | -86.87805 | 31 ft | 2 kts | 213° |
| 2026-05-07 18:47 | 21.04013 | -86.87826 | 31 ft | 7 kts | 214° |
| 2026-05-07 18:47 | 21.03979 | -86.87870 | 30 ft | 9 kts | 267° |
| 2026-05-07 18:48 | 21.04005 | -86.87943 | 31 ft | 11 kts | 302° |
| 2026-05-07 18:48 | 21.04053 | -86.88023 | 31 ft | 13 kts | 304° |
| 2026-05-07 18:48 | 21.04108 | -86.88110 | 32 ft | 14 kts | 303° |
| 2026-05-07 18:48 | 21.04168 | -86.88206 | 34 ft | 15 kts | 303° |
| 2026-05-07 18:49 | 21.04230 | -86.88306 | 36 ft | 16 kts | 303° |
| 2026-05-07 18:49 | 21.04294 | -86.88408 | 38 ft | 15 kts | 303° |
| 2026-05-07 18:49 | 21.04350 | -86.88497 | 40 ft | 13 kts | 303° |
| 2026-05-07 18:49 | 21.04396 | -86.88573 | 41 ft | 11 kts | 303° |
| 2026-05-07 18:50 | 21.04437 | -86.88639 | 42 ft | 10 kts | 304° |
| 2026-05-07 18:50 | 21.04484 | -86.88710 | 42 ft | 13 kts | 304° |
| 2026-05-07 18:50 | 21.04539 | -86.88799 | 41 ft | 15 kts | 304° |
| 2026-05-07 18:50 | 21.04604 | -86.88901 | 42 ft | 14 kts | 304° |
| 2026-05-07 18:51 | 21.04641 | -86.88974 | 42 ft | 9 kts | 268° |
| 2026-05-07 18:51 | 21.04603 | -86.89031 | 42 ft | 10 kts | 219° |
| 2026-05-07 18:51 | 21.04544 | -86.89074 | 41 ft | 9 kts | 196° |
| 2026-05-07 18:51 | 21.04492 | -86.89037 | 40 ft | 9 kts | 122° |
| 2026-05-07 18:52 | 21.04446 | -86.88962 | 40 ft | 23 kts | 123° |
| 2026-05-07 18:52 | 21.04197 | -86.88563 | 38 ft | 105 kts | 124° |
| 2026-05-07 18:52 | 21.03642 | -86.87676 | 93 ft | 170 kts | 126° |
| 2026-05-07 18:52 | 21.02965 | -86.86607 | 855 ft | 177 kts | 125° |
| 2026-05-07 18:53 | 21.02314 | -86.85573 | 1756 ft | 167 kts | 126° |
| 2026-05-07 18:53 | 21.01652 | -86.84466 | 2006 ft | 188 kts | 121° |
| 2026-05-07 18:53 | 21.00998 | -86.83174 | 2315 ft | 206 kts | 119° |
| 2026-05-07 18:53 | 21.00296 | -86.81750 | 2724 ft | 224 kts | 119° |
| 2026-05-07 18:54 | 20.99540 | -86.80223 | 3129 ft | 243 kts | 119° |
| 2026-05-07 18:54 | 20.98732 | -86.78593 | 3657 ft | 256 kts | 119° |
| 2026-05-07 18:54 | 20.97900 | -86.76915 | 4442 ft | 258 kts | 118° |
| 2026-05-07 18:54 | 20.97054 | -86.75210 | 4887 ft | 261 kts | 118° |
| 2026-05-07 18:55 | 20.96202 | -86.73493 | 4966 ft | 262 kts | 119° |
| 2026-05-07 18:55 | 20.95225 | -86.71813 | 5026 ft | 272 kts | 125° |
| 2026-05-07 18:55 | 20.94150 | -86.70184 | 5882 ft | 270 kts | 126° |
| 2026-05-07 18:55 | 20.93077 | -86.68568 | 6779 ft | 267 kts | 125° |
| 2026-05-07 18:56 | 20.92001 | -86.66943 | 7457 ft | 272 kts | 125° |
| 2026-05-07 18:56 | 20.90904 | -86.65285 | 8120 ft | 276 kts | 124° |
| 2026-05-07 18:56 | 20.89793 | -86.63604 | 8432 ft | 279 kts | 124° |
| 2026-05-07 18:56 | 20.88671 | -86.61907 | 8486 ft | 279 kts | 124° |
| 2026-05-07 18:57 | 20.87552 | -86.60215 | 8482 ft | 278 kts | 124° |
| 2026-05-07 18:57 | 20.86436 | -86.58527 | 8473 ft | 278 kts | 124° |
| 2026-05-07 18:57 | 20.85314 | -86.56832 | 8482 ft | 278 kts | 124° |
| 2026-05-07 18:57 | 20.84199 | -86.55148 | 8485 ft | 279 kts | 124° |
| 2026-05-07 18:58 | 20.83068 | -86.53440 | 8478 ft | 278 kts | 124° |
| 2026-05-07 18:58 | 20.81948 | -86.51749 | 8483 ft | 279 kts | 124° |
| 2026-05-07 18:58 | 20.80841 | -86.50079 | 8493 ft | 278 kts | 124° |
| 2026-05-07 18:58 | 20.79712 | -86.48375 | 8478 ft | 278 kts | 124° |
| 2026-05-07 18:59 | 20.78596 | -86.46693 | 8475 ft | 278 kts | 124° |
| 2026-05-07 18:59 | 20.77482 | -86.45013 | 8488 ft | 278 kts | 124° |
| 2026-05-07 18:59 | 20.76351 | -86.43308 | 8484 ft | 278 kts | 124° |
| 2026-05-07 18:59 | 20.75240 | -86.41633 | 8470 ft | 278 kts | 124° |
| 2026-05-07 19:00 | 20.74105 | -86.39924 | 8492 ft | 286 kts | 124° |
| 2026-05-07 19:00 | 20.72965 | -86.38207 | 9231 ft | 286 kts | 124° |
| 2026-05-07 19:00 | 20.71828 | -86.36495 | 10069 ft | 283 kts | 124° |
| 2026-05-07 19:00 | 20.70660 | -86.34736 | 10535 ft | 296 kts | 124° |
| 2026-05-07 19:01 | 20.69310 | -86.33009 | 10881 ft | 314 kts | 134° |
| 2026-05-07 19:01 | 20.67587 | -86.31470 | 11243 ft | 332 kts | 143° |
| 2026-05-07 19:01 | 20.65524 | -86.30228 | 11659 ft | 349 kts | 152° |
| 2026-05-07 19:01 | 20.63302 | -86.29111 | 12088 ft | 363 kts | 153° |
| 2026-05-07 19:02 | 20.60955 | -86.27930 | 12532 ft | 377 kts | 152° |
| 2026-05-07 19:02 | 20.58565 | -86.26716 | 13028 ft | 389 kts | 152° |
| 2026-05-07 19:02 | 20.56100 | -86.25459 | 13720 ft | 396 kts | 152° |
| 2026-05-07 19:02 | 20.53599 | -86.24181 | 14480 ft | 401 kts | 152° |
| 2026-05-07 19:03 | 20.51056 | -86.22881 | 14917 ft | 406 kts | 152° |
| 2026-05-07 19:03 | 20.48508 | -86.21578 | 14977 ft | 406 kts | 151° |
| 2026-05-07 19:03 | 20.45941 | -86.20266 | 14978 ft | 405 kts | 152° |
| 2026-05-07 19:03 | 20.43412 | -86.18973 | 14987 ft | 405 kts | 152° |
| 2026-05-07 19:04 | 20.40877 | -86.17677 | 14977 ft | 405 kts | 152° |
| 2026-05-07 19:04 | 20.38317 | -86.16367 | 14982 ft | 405 kts | 151° |
| 2026-05-07 19:04 | 20.35761 | -86.15061 | 14978 ft | 404 kts | 151° |
| 2026-05-07 19:04 | 20.33235 | -86.13770 | 14982 ft | 405 kts | 151° |
| 2026-05-07 19:05 | 20.30701 | -86.12475 | 14979 ft | 405 kts | 151° |
| 2026-05-07 19:05 | 20.28130 | -86.11162 | 14980 ft | 405 kts | 151° |
| 2026-05-07 19:05 | 20.25596 | -86.09869 | 14977 ft | 405 kts | 151° |
| 2026-05-07 19:05 | 20.23085 | -86.08549 | 14971 ft | 403 kts | 147° |
| 2026-05-07 19:06 | 20.20756 | -86.06846 | 15004 ft | 409 kts | 137° |
| 2026-05-07 19:06 | 20.16485 | -86.02799 | 16965 ft | 409 kts | 135° |
| 2026-05-07 19:06 | 20.14400 | -86.00803 | 17898 ft | 410 kts | 135° |
| 2026-05-07 19:07 | 20.12248 | -85.98743 | 18627 ft | 416 kts | 135° |
| 2026-05-07 19:07 | 20.10078 | -85.96667 | 19342 ft | 422 kts | 136° |
| 2026-05-07 19:07 | 20.07892 | -85.94576 | 20133 ft | 426 kts | 136° |
| 2026-05-07 19:07 | 20.05709 | -85.92490 | 20887 ft | 429 kts | 137° |
| 2026-05-07 19:08 | 20.03454 | -85.90334 | 21618 ft | 434 kts | 137° |
| 2026-05-07 19:08 | 20.01214 | -85.88201 | 22334 ft | 438 kts | 137° |
| 2026-05-07 19:08 | 19.98923 | -85.86039 | 22997 ft | 443 kts | 138° |
| 2026-05-07 19:08 | 19.96593 | -85.83842 | 23605 ft | 450 kts | 138° |
| 2026-05-07 19:09 | 19.94265 | -85.81646 | 24236 ft | 455 kts | 138° |
| 2026-05-07 19:09 | 19.91882 | -85.79400 | 24882 ft | 460 kts | 138° |
| 2026-05-07 19:09 | 19.89459 | -85.77116 | 25499 ft | 466 kts | 138° |
| 2026-05-07 19:09 | 19.87027 | -85.74824 | 26114 ft | 472 kts | 138° |
| 2026-05-07 19:10 | 19.84565 | -85.72505 | 26710 ft | 478 kts | 138° |
| 2026-05-07 19:10 | 19.82076 | -85.70161 | 27328 ft | 483 kts | 138° |
| 2026-05-07 19:10 | 19.79549 | -85.67783 | 27911 ft | 489 kts | 138° |
| 2026-05-07 19:10 | 19.76988 | -85.65374 | 28507 ft | 494 kts | 139° |
| 2026-05-07 19:11 | 19.74423 | -85.62962 | 29019 ft | 501 kts | 139° |
| 2026-05-07 19:11 | 19.71810 | -85.60506 | 29665 ft | 504 kts | 139° |
| 2026-05-07 19:11 | 19.69175 | -85.58029 | 30569 ft | 501 kts | 139° |
| 2026-05-07 19:11 | 19.66585 | -85.55597 | 31444 ft | 498 kts | 139° |
| 2026-05-07 19:12 | 19.64004 | -85.53174 | 32207 ft | 496 kts | 139° |
| 2026-05-07 19:12 | 19.61426 | -85.50754 | 32894 ft | 496 kts | 139° |
| 2026-05-07 19:12 | 19.58835 | -85.48324 | 33600 ft | 496 kts | 139° |
| 2026-05-07 19:12 | 19.56256 | -85.45906 | 34349 ft | 495 kts | 139° |
| 2026-05-07 19:13 | 19.53689 | -85.43501 | 35089 ft | 493 kts | 139° |
| 2026-05-07 19:13 | 19.51122 | -85.41097 | 35819 ft | 491 kts | 139° |
| 2026-05-07 19:13 | 19.48595 | -85.38730 | 36384 ft | 491 kts | 139° |
| 2026-05-07 19:13 | 19.46020 | -85.36320 | 36859 ft | 492 kts | 139° |
| 2026-05-07 19:14 | 19.43408 | -85.33878 | 36974 ft | 499 kts | 139° |
| 2026-05-07 19:14 | 19.40762 | -85.31403 | 36975 ft | 506 kts | 139° |
| 2026-05-07 19:14 | 19.35325 | -85.26324 | 36981 ft | 519 kts | 139° |
| 2026-05-07 19:15 | 19.29807 | -85.21172 | 36983 ft | 520 kts | 139° |
| 2026-05-07 19:15 | 19.24385 | -85.16115 | 36975 ft | 520 kts | 139° |
| 2026-05-07 19:16 | 19.18959 | -85.11059 | 36977 ft | 519 kts | 139° |
| 2026-05-07 19:16 | 19.13487 | -85.05964 | 36979 ft | 520 kts | 139° |
| 2026-05-07 19:17 | 19.08067 | -85.00923 | 36979 ft | 520 kts | 139° |
| 2026-05-07 19:17 | 19.02644 | -84.95884 | 36974 ft | 519 kts | 139° |
| 2026-05-07 19:18 | 18.97193 | -84.90823 | 36974 ft | 520 kts | 139° |
| 2026-05-07 19:18 | 18.91741 | -84.85766 | 36978 ft | 519 kts | 139° |
| 2026-05-07 19:19 | 18.86318 | -84.80740 | 36976 ft | 520 kts | 139° |
| 2026-05-07 19:19 | 18.80864 | -84.75690 | 36976 ft | 519 kts | 139° |
| 2026-05-07 19:20 | 18.75451 | -84.70682 | 36976 ft | 519 kts | 139° |
| 2026-05-07 19:20 | 18.69996 | -84.65640 | 36976 ft | 519 kts | 139° |
| 2026-05-07 19:21 | 18.64561 | -84.60622 | 36977 ft | 519 kts | 139° |
| 2026-05-07 19:21 | 18.59124 | -84.55605 | 36976 ft | 519 kts | 139° |
| 2026-05-07 19:22 | 18.53614 | -84.50665 | 36972 ft | 519 kts | 144° |
| 2026-05-07 19:22 | 18.47332 | -84.47006 | 36979 ft | 518 kts | 155° |
| 2026-05-07 19:23 | 18.40764 | -84.43801 | 36977 ft | 518 kts | 155° |
| 2026-05-07 19:23 | 18.34237 | -84.40630 | 36977 ft | 518 kts | 155° |
| 2026-05-07 19:24 | 18.27665 | -84.37439 | 36977 ft | 517 kts | 155° |
| 2026-05-07 19:24 | 18.21116 | -84.34264 | 36976 ft | 518 kts | 155° |
| 2026-05-07 19:25 | 18.14564 | -84.31089 | 36975 ft | 518 kts | 155° |
| 2026-05-07 19:25 | 18.08003 | -84.27914 | 36973 ft | 517 kts | 155° |
| 2026-05-07 19:26 | 18.01485 | -84.24762 | 36972 ft | 517 kts | 155° |
| 2026-05-07 19:26 | 17.94938 | -84.21599 | 36974 ft | 518 kts | 155° |
| 2026-05-07 19:27 | 17.88381 | -84.18433 | 36971 ft | 517 kts | 155° |
| 2026-05-07 19:27 | 17.81832 | -84.15275 | 36970 ft | 517 kts | 155° |
| 2026-05-07 19:28 | 17.75259 | -84.12106 | 36969 ft | 517 kts | 155° |
| 2026-05-07 19:28 | 17.68732 | -84.08963 | 36969 ft | 517 kts | 155° |
| 2026-05-07 19:29 | 17.62179 | -84.05810 | 36971 ft | 517 kts | 155° |
| 2026-05-07 19:29 | 17.55627 | -84.02660 | 36969 ft | 516 kts | 155° |
| 2026-05-07 19:30 | 17.49056 | -83.99503 | 36971 ft | 517 kts | 155° |
| 2026-05-07 19:30 | 17.42514 | -83.96362 | 36970 ft | 516 kts | 155° |
| 2026-05-07 19:31 | 17.35975 | -83.93226 | 36972 ft | 516 kts | 155° |
| 2026-05-07 19:31 | 17.29436 | -83.90093 | 36971 ft | 516 kts | 155° |
| 2026-05-07 19:32 | 17.22918 | -83.86970 | 36972 ft | 516 kts | 155° |
| 2026-05-07 19:32 | 17.16354 | -83.83830 | 36972 ft | 515 kts | 155° |
| 2026-05-07 19:33 | 17.09808 | -83.80699 | 36972 ft | 516 kts | 155° |
| 2026-05-07 19:33 | 17.03262 | -83.77572 | 36973 ft | 515 kts | 155° |
| 2026-05-07 19:34 | 16.96749 | -83.74463 | 36972 ft | 515 kts | 155° |
| 2026-05-07 19:34 | 16.90218 | -83.71347 | 36971 ft | 515 kts | 155° |
| 2026-05-07 19:35 | 16.83654 | -83.68218 | 36968 ft | 515 kts | 155° |
| 2026-05-07 19:35 | 16.77148 | -83.65119 | 36969 ft | 516 kts | 155° |
| 2026-05-07 19:36 | 16.70581 | -83.61993 | 36966 ft | 515 kts | 155° |
| 2026-05-07 19:36 | 16.64071 | -83.58897 | 36967 ft | 516 kts | 155° |
| 2026-05-07 19:37 | 16.57529 | -83.55788 | 36966 ft | 515 kts | 155° |
| 2026-05-07 19:37 | 16.51002 | -83.52689 | 36967 ft | 515 kts | 155° |
| 2026-05-07 19:38 | 16.44498 | -83.49602 | 36964 ft | 515 kts | 155° |
| 2026-05-07 19:38 | 16.37919 | -83.46483 | 36964 ft | 515 kts | 155° |
| 2026-05-07 19:39 | 16.31390 | -83.43389 | 36964 ft | 515 kts | 155° |
| 2026-05-07 19:39 | 16.24855 | -83.40295 | 36966 ft | 515 kts | 155° |
| 2026-05-07 19:40 | 16.18340 | -83.37212 | 36966 ft | 515 kts | 155° |
| 2026-05-07 19:40 | 16.11817 | -83.34128 | 36966 ft | 515 kts | 155° |
| 2026-05-07 19:41 | 16.05282 | -83.31040 | 36966 ft | 515 kts | 155° |
| 2026-05-07 19:41 | 15.98749 | -83.27899 | 36965 ft | 515 kts | 154° |
| 2026-05-07 19:42 | 15.92224 | -83.24751 | 36966 ft | 515 kts | 155° |
| 2026-05-07 19:42 | 15.85723 | -83.21620 | 36966 ft | 515 kts | 154° |
| 2026-05-07 19:43 | 15.79202 | -83.18483 | 36965 ft | 515 kts | 154° |
| 2026-05-07 19:43 | 15.72673 | -83.15344 | 36969 ft | 516 kts | 154° |
| 2026-05-07 19:44 | 15.66132 | -83.12202 | 36965 ft | 515 kts | 154° |
| 2026-05-07 19:44 | 15.59608 | -83.09071 | 36970 ft | 515 kts | 154° |
| 2026-05-07 19:45 | 15.53695 | -83.06235 | 36963 ft | 515 kts | 154° |
| 2026-05-07 19:45 | 15.47172 | -83.03109 | 36968 ft | 514 kts | 154° |
| 2026-05-07 19:46 | 15.40682 | -83.00001 | 36972 ft | 515 kts | 154° |
| 2026-05-07 19:46 | 15.34167 | -82.96883 | 36970 ft | 514 kts | 154° |
| 2026-05-07 19:47 | 15.27655 | -82.93768 | 36971 ft | 514 kts | 154° |
| 2026-05-07 19:47 | 15.21144 | -82.90656 | 36973 ft | 514 kts | 154° |
| 2026-05-07 19:48 | 15.14633 | -82.87547 | 36971 ft | 513 kts | 154° |
| 2026-05-07 19:48 | 15.08148 | -82.84452 | 36972 ft | 513 kts | 154° |
| 2026-05-07 19:49 | 15.01660 | -82.81357 | 36971 ft | 513 kts | 154° |
| 2026-05-07 19:49 | 14.95194 | -82.78275 | 36972 ft | 513 kts | 154° |
| 2026-05-07 19:50 | 14.88674 | -82.75169 | 36970 ft | 513 kts | 154° |
| 2026-05-07 19:50 | 14.82181 | -82.72079 | 36969 ft | 513 kts | 154° |
| 2026-05-07 19:51 | 14.75681 | -82.68986 | 36969 ft | 513 kts | 154° |
| 2026-05-07 19:51 | 14.69157 | -82.65885 | 36968 ft | 513 kts | 154° |
| 2026-05-07 19:52 | 14.62690 | -82.62813 | 36968 ft | 513 kts | 154° |
| 2026-05-07 19:52 | 14.56142 | -82.59705 | 36967 ft | 513 kts | 154° |
| 2026-05-07 19:53 | 14.49636 | -82.56618 | 36965 ft | 513 kts | 154° |
| 2026-05-07 19:53 | 14.43124 | -82.53530 | 36965 ft | 512 kts | 154° |
| 2026-05-07 19:54 | 14.36629 | -82.50453 | 36964 ft | 513 kts | 154° |
| 2026-05-07 19:54 | 14.30126 | -82.47373 | 36962 ft | 512 kts | 154° |
| 2026-05-07 19:55 | 14.23647 | -82.44316 | 36962 ft | 512 kts | 154° |
| 2026-05-07 19:55 | 14.17097 | -82.41373 | 36963 ft | 512 kts | 155° |
| 2026-05-07 19:56 | 14.10503 | -82.38422 | 36962 ft | 512 kts | 155° |
| 2026-05-07 19:56 | 14.03971 | -82.35494 | 36957 ft | 512 kts | 155° |
| 2026-05-07 19:57 | 13.97433 | -82.32564 | 36963 ft | 512 kts | 155° |
| 2026-05-07 19:57 | 13.90889 | -82.29631 | 36960 ft | 512 kts | 155° |
| 2026-05-07 19:58 | 13.84352 | -82.26702 | 36956 ft | 512 kts | 155° |
| 2026-05-07 19:58 | 13.77800 | -82.23768 | 36954 ft | 512 kts | 155° |
| 2026-05-07 19:59 | 13.71250 | -82.20836 | 36954 ft | 511 kts | 155° |
| 2026-05-07 19:59 | 13.64668 | -82.17892 | 36954 ft | 512 kts | 155° |
| 2026-05-07 20:00 | 13.58109 | -82.14960 | 36952 ft | 512 kts | 155° |
| 2026-05-07 20:00 | 13.51544 | -82.12026 | 36951 ft | 511 kts | 155° |
| 2026-05-07 20:01 | 13.45020 | -82.09113 | 36952 ft | 511 kts | 155° |
| 2026-05-07 20:01 | 13.38468 | -82.06189 | 36952 ft | 511 kts | 155° |
| 2026-05-07 20:02 | 13.31924 | -82.03270 | 36953 ft | 511 kts | 155° |
| 2026-05-07 20:02 | 13.25342 | -82.00337 | 36952 ft | 511 kts | 155° |
| 2026-05-07 20:03 | 13.18841 | -81.97440 | 36951 ft | 511 kts | 155° |
| 2026-05-07 20:03 | 13.12240 | -81.94501 | 36952 ft | 511 kts | 155° |
| 2026-05-07 20:04 | 13.05734 | -81.91606 | 36952 ft | 511 kts | 155° |
| 2026-05-07 20:04 | 12.99181 | -81.88693 | 36950 ft | 511 kts | 155° |
| 2026-05-07 20:05 | 12.92646 | -81.85788 | 36951 ft | 511 kts | 155° |
| 2026-05-07 20:05 | 12.86112 | -81.82886 | 36947 ft | 511 kts | 154° |
| 2026-05-07 20:06 | 12.79560 | -81.79977 | 36946 ft | 512 kts | 155° |
| 2026-05-07 20:06 | 12.72977 | -81.77056 | 36949 ft | 512 kts | 154° |
| 2026-05-07 20:07 | 12.66425 | -81.74151 | 36951 ft | 513 kts | 154° |
| 2026-05-07 20:07 | 12.59853 | -81.71238 | 36956 ft | 514 kts | 154° |
| 2026-05-07 20:08 | 12.53534 | -81.67826 | 36953 ft | 512 kts | 148° |
| 2026-05-07 20:08 | 12.47349 | -81.64241 | 36951 ft | 513 kts | 148° |
| 2026-05-07 20:09 | 12.41101 | -81.60626 | 36944 ft | 513 kts | 148° |
| 2026-05-07 20:10 | 12.31781 | -81.55241 | 36937 ft | 513 kts | 148° |
| 2026-05-07 20:10 | 12.25569 | -81.51656 | 36935 ft | 514 kts | 148° |
| 2026-05-07 20:11 | 12.19341 | -81.48065 | 36932 ft | 513 kts | 148° |
| 2026-05-07 20:11 | 12.13091 | -81.44463 | 36932 ft | 514 kts | 148° |
| 2026-05-07 20:12 | 12.06864 | -81.40877 | 36931 ft | 514 kts | 148° |
| 2026-05-07 20:12 | 12.00603 | -81.37273 | 36930 ft | 515 kts | 148° |
| 2026-05-07 20:13 | 11.94353 | -81.33677 | 36933 ft | 515 kts | 148° |
| 2026-05-07 20:13 | 11.88135 | -81.30102 | 36931 ft | 515 kts | 148° |
| 2026-05-07 20:14 | 11.82469 | -81.26846 | 36929 ft | 515 kts | 148° |
| 2026-05-07 20:14 | 11.76182 | -81.23235 | 36929 ft | 515 kts | 148° |
| 2026-05-07 20:15 | 11.69937 | -81.19649 | 36927 ft | 515 kts | 148° |
| 2026-05-07 20:15 | 11.63685 | -81.16062 | 36930 ft | 515 kts | 148° |
| 2026-05-07 20:16 | 11.57436 | -81.12479 | 36928 ft | 514 kts | 149° |
| 2026-05-07 20:16 | 11.51200 | -81.08903 | 36929 ft | 514 kts | 148° |
| 2026-05-07 20:17 | 11.44976 | -81.05338 | 36927 ft | 514 kts | 149° |
| 2026-05-07 20:17 | 11.38701 | -81.01745 | 36930 ft | 514 kts | 148° |
| 2026-05-07 20:18 | 11.32439 | -80.98161 | 36931 ft | 514 kts | 149° |
| 2026-05-07 20:18 | 11.26194 | -80.94589 | 36930 ft | 514 kts | 148° |
| 2026-05-07 20:19 | 11.19984 | -80.91039 | 36927 ft | 514 kts | 149° |
| 2026-05-07 20:19 | 11.13681 | -80.87437 | 36927 ft | 514 kts | 149° |
| 2026-05-07 20:20 | 11.07444 | -80.83875 | 36929 ft | 514 kts | 149° |
| 2026-05-07 20:20 | 11.01166 | -80.80290 | 36926 ft | 514 kts | 149° |
| 2026-05-07 20:21 | 10.94943 | -80.76739 | 36927 ft | 514 kts | 149° |
| 2026-05-07 20:21 | 10.88687 | -80.73172 | 36923 ft | 515 kts | 148° |
| 2026-05-07 20:22 | 10.82437 | -80.69608 | 36918 ft | 515 kts | 148° |
| 2026-05-07 20:22 | 10.76166 | -80.66035 | 36919 ft | 516 kts | 149° |
| 2026-05-07 20:23 | 10.69996 | -80.62199 | 36917 ft | 513 kts | 140° |
| 2026-05-07 20:23 | 10.65045 | -80.56995 | 36920 ft | 510 kts | 125° |
| 2026-05-07 20:24 | 10.60776 | -80.51208 | 36914 ft | 509 kts | 124° |
| 2026-05-07 20:24 | 10.56527 | -80.45422 | 36912 ft | 510 kts | 124° |
| 2026-05-07 20:25 | 10.52284 | -80.39650 | 36914 ft | 511 kts | 124° |
| 2026-05-07 20:25 | 10.48029 | -80.33866 | 36914 ft | 511 kts | 124° |
| 2026-05-07 20:26 | 10.43763 | -80.28070 | 36914 ft | 511 kts | 125° |
| 2026-05-07 20:26 | 10.41660 | -80.25215 | 36604 ft | 502 kts | 124° |
| 2026-05-07 20:26 | 10.39581 | -80.22393 | 35629 ft | 504 kts | 124° |
| 2026-05-07 20:26 | 10.37472 | -80.19529 | 34588 ft | 506 kts | 124° |
| 2026-05-07 20:27 | 10.35390 | -80.16705 | 33700 ft | 504 kts | 124° |
| 2026-05-07 20:27 | 10.33285 | -80.13850 | 32835 ft | 502 kts | 124° |
| 2026-05-07 20:27 | 10.31194 | -80.11014 | 31982 ft | 500 kts | 124° |
| 2026-05-07 20:27 | 10.29132 | -80.08218 | 31092 ft | 500 kts | 124° |
| 2026-05-07 20:28 | 10.27055 | -80.05402 | 30299 ft | 497 kts | 124° |
| 2026-05-07 20:28 | 10.25001 | -80.02621 | 29843 ft | 488 kts | 124° |
| 2026-05-07 20:28 | 10.22968 | -79.99866 | 29343 ft | 481 kts | 124° |
| 2026-05-07 20:28 | 10.20979 | -79.97173 | 28793 ft | 475 kts | 124° |
| 2026-05-07 20:29 | 10.19031 | -79.94536 | 28250 ft | 469 kts | 124° |
| 2026-05-07 20:29 | 10.17077 | -79.91890 | 27707 ft | 464 kts | 124° |
| 2026-05-07 20:29 | 10.15146 | -79.89276 | 27152 ft | 460 kts | 124° |
| 2026-05-07 20:29 | 10.13253 | -79.86714 | 26595 ft | 455 kts | 124° |
| 2026-05-07 20:30 | 10.11369 | -79.84166 | 26049 ft | 450 kts | 124° |
| 2026-05-07 20:30 | 10.09501 | -79.81639 | 25491 ft | 446 kts | 123° |
| 2026-05-07 20:30 | 10.07632 | -79.79112 | 24926 ft | 442 kts | 123° |
| 2026-05-07 20:30 | 10.05818 | -79.76659 | 24382 ft | 438 kts | 123° |
| 2026-05-07 20:31 | 10.03993 | -79.74192 | 23822 ft | 434 kts | 123° |
| 2026-05-07 20:31 | 10.02185 | -79.71748 | 23269 ft | 430 kts | 123° |
| 2026-05-07 20:31 | 10.00397 | -79.69331 | 22723 ft | 426 kts | 123° |
| 2026-05-07 20:31 | 9.98630 | -79.66944 | 22171 ft | 423 kts | 123° |
| 2026-05-07 20:32 | 9.96881 | -79.64582 | 21654 ft | 419 kts | 123° |
| 2026-05-07 20:32 | 9.95156 | -79.62253 | 21360 ft | 409 kts | 123° |
| 2026-05-07 20:32 | 9.93461 | -79.59967 | 21253 ft | 395 kts | 123° |
| 2026-05-07 20:32 | 9.91856 | -79.57803 | 21122 ft | 382 kts | 123° |
| 2026-05-07 20:33 | 9.90276 | -79.55670 | 20974 ft | 370 kts | 123° |
| 2026-05-07 20:33 | 9.88743 | -79.53602 | 20817 ft | 359 kts | 123° |
| 2026-05-07 20:33 | 9.87235 | -79.51644 | 20647 ft | 350 kts | 130° |
| 2026-05-07 20:33 | 9.85344 | -79.50127 | 20481 ft | 346 kts | 145° |
| 2026-05-07 20:34 | 9.83217 | -79.48982 | 20087 ft | 347 kts | 149° |
| 2026-05-07 20:34 | 9.81030 | -79.47930 | 19621 ft | 348 kts | 150° |
| 2026-05-07 20:34 | 9.78831 | -79.46909 | 19164 ft | 348 kts | 151° |
| 2026-05-07 20:34 | 9.76624 | -79.45900 | 18687 ft | 342 kts | 151° |
| 2026-05-07 20:35 | 9.74468 | -79.44921 | 18286 ft | 331 kts | 151° |
| 2026-05-07 20:35 | 9.72414 | -79.43990 | 17903 ft | 322 kts | 151° |
| 2026-05-07 20:35 | 9.70379 | -79.43068 | 17512 ft | 318 kts | 151° |
| 2026-05-07 20:35 | 9.68322 | -79.42133 | 17105 ft | 325 kts | 152° |
| 2026-05-07 20:36 | 9.66224 | -79.41183 | 16354 ft | 330 kts | 152° |
| 2026-05-07 20:36 | 9.64133 | -79.40238 | 15629 ft | 331 kts | 152° |
| 2026-05-07 20:36 | 9.62044 | -79.39294 | 14924 ft | 330 kts | 152° |
| 2026-05-07 20:36 | 9.59937 | -79.38342 | 14283 ft | 327 kts | 152° |
| 2026-05-07 20:37 | 9.57875 | -79.37411 | 13683 ft | 322 kts | 152° |
| 2026-05-07 20:37 | 9.55861 | -79.36501 | 13103 ft | 318 kts | 152° |
| 2026-05-07 20:37 | 9.53834 | -79.35586 | 12501 ft | 314 kts | 152° |
| 2026-05-07 20:37 | 9.51842 | -79.34686 | 11921 ft | 311 kts | 153° |
| 2026-05-07 20:38 | 9.49886 | -79.33802 | 11381 ft | 307 kts | 153° |
| 2026-05-07 20:38 | 9.47947 | -79.32927 | 10835 ft | 303 kts | 153° |
| 2026-05-07 20:38 | 9.46041 | -79.32066 | 10300 ft | 299 kts | 153° |
| 2026-05-07 20:38 | 9.44148 | -79.31211 | 9765 ft | 295 kts | 153° |
| 2026-05-07 20:39 | 9.42278 | -79.30367 | 9222 ft | 292 kts | 154° |
| 2026-05-07 20:39 | 9.40444 | -79.29539 | 8697 ft | 290 kts | 154° |
| 2026-05-07 20:39 | 9.38583 | -79.28699 | 8250 ft | 293 kts | 153° |
| 2026-05-07 20:39 | 9.36829 | -79.27673 | 7876 ft | 287 kts | 134° |
| 2026-05-07 20:40 | 9.35761 | -79.26099 | 7987 ft | 262 kts | 111° |
| 2026-05-07 20:40 | 9.35360 | -79.24368 | 8008 ft | 244 kts | 89° |
| 2026-05-07 20:40 | 9.35617 | -79.22721 | 8031 ft | 233 kts | 74° |
| 2026-05-07 20:40 | 9.36136 | -79.21188 | 8032 ft | 230 kts | 68° |
| 2026-05-07 20:41 | 9.36791 | -79.19679 | 8012 ft | 233 kts | 66° |
| 2026-05-07 20:41 | 9.37478 | -79.18203 | 8027 ft | 231 kts | 65° |
| 2026-05-07 20:41 | 9.38164 | -79.16740 | 8024 ft | 231 kts | 65° |
| 2026-05-07 20:41 | 9.38853 | -79.15269 | 8023 ft | 232 kts | 65° |
| 2026-05-07 20:42 | 9.39544 | -79.13795 | 8029 ft | 231 kts | 65° |
| 2026-05-07 20:42 | 9.40234 | -79.12322 | 8030 ft | 232 kts | 65° |
| 2026-05-07 20:42 | 9.40928 | -79.10841 | 8024 ft | 232 kts | 65° |
| 2026-05-07 20:42 | 9.41405 | -79.09298 | 8010 ft | 230 kts | 87° |
| 2026-05-07 20:43 | 9.41094 | -79.07715 | 8002 ft | 233 kts | 115° |
| 2026-05-07 20:43 | 9.39970 | -79.06400 | 7788 ft | 261 kts | 144° |
| 2026-05-07 20:43 | 9.38198 | -79.05849 | 7460 ft | 275 kts | 178° |
| 2026-05-07 20:43 | 9.36369 | -79.06398 | 7165 ft | 279 kts | 213° |
| 2026-05-07 20:44 | 9.35102 | -79.07886 | 6904 ft | 281 kts | 242° |
| 2026-05-07 20:44 | 9.34142 | -79.09607 | 6671 ft | 282 kts | 232° |
| 2026-05-07 20:44 | 9.32731 | -79.10948 | 6395 ft | 279 kts | 211° |
| 2026-05-07 20:44 | 9.30976 | -79.11792 | 6103 ft | 276 kts | 200° |
| 2026-05-07 20:45 | 9.29157 | -79.12479 | 5840 ft | 276 kts | 199° |
| 2026-05-07 20:45 | 9.27352 | -79.13144 | 5580 ft | 275 kts | 199° |
| 2026-05-07 20:45 | 9.25611 | -79.13937 | 5303 ft | 273 kts | 212° |
| 2026-05-07 20:45 | 9.24050 | -79.15044 | 5071 ft | 273 kts | 217° |
| 2026-05-07 20:46 | 9.22540 | -79.16196 | 5033 ft | 274 kts | 217° |
| 2026-05-07 20:46 | 9.20999 | -79.17370 | 5029 ft | 275 kts | 217° |
| 2026-05-07 20:46 | 9.19476 | -79.18524 | 4842 ft | 276 kts | 217° |
| 2026-05-07 20:46 | 9.17960 | -79.19673 | 4441 ft | 269 kts | 218° |
| 2026-05-07 20:47 | 9.16593 | -79.20942 | 4015 ft | 264 kts | 232° |
| 2026-05-07 20:47 | 9.15679 | -79.22509 | 3595 ft | 257 kts | 252° |
| 2026-05-07 20:47 | 9.15303 | -79.24246 | 3173 ft | 248 kts | 269° |
| 2026-05-07 20:47 | 9.15353 | -79.25905 | 3024 ft | 223 kts | 277° |
| 2026-05-07 20:48 | 9.15443 | -79.27408 | 3034 ft | 209 kts | 276° |
| 2026-05-07 20:48 | 9.15511 | -79.28854 | 3027 ft | 205 kts | 276° |
| 2026-05-07 20:48 | 9.15566 | -79.30308 | 3108 ft | 208 kts | 276° |
| 2026-05-07 20:48 | 9.15614 | -79.31881 | 3129 ft | 238 kts | 272° |
| 2026-05-07 20:49 | 9.15230 | -79.33556 | 3114 ft | 249 kts | 245° |
| 2026-05-07 20:49 | 9.14083 | -79.34863 | 3099 ft | 253 kts | 216° |
| 2026-05-07 20:49 | 9.12525 | -79.35722 | 3126 ft | 254 kts | 208° |
| 2026-05-07 20:49 | 9.10955 | -79.36561 | 3131 ft | 254 kts | 211° |
| 2026-05-07 20:50 | 9.09468 | -79.37412 | 3111 ft | 240 kts | 212° |
| 2026-05-07 20:50 | 9.08005 | -79.38312 | 3102 ft | 244 kts | 215° |
| 2026-05-07 20:50 | 9.06696 | -79.39350 | 2950 ft | 234 kts | 231° |
| 2026-05-07 20:50 | 9.05844 | -79.40627 | 3067 ft | 208 kts | 251° |
| 2026-05-07 20:51 | 9.05508 | -79.41965 | 3095 ft | 190 kts | 272° |
| 2026-05-07 20:51 | 9.05681 | -79.43277 | 3108 ft | 185 kts | 295° |
| 2026-05-07 20:51 | 9.06311 | -79.44371 | 3103 ft | 179 kts | 317° |
| 2026-05-07 20:51 | 9.07301 | -79.45116 | 3083 ft | 175 kts | 340° |
| 2026-05-07 20:52 | 9.08467 | -79.45386 | 3068 ft | 172 kts | 2° |
| 2026-05-07 20:52 | 9.09645 | -79.45149 | 3036 ft | 171 kts | 25° |
| 2026-05-07 20:52 | 9.10607 | -79.44455 | 2989 ft | 171 kts | 47° |
| 2026-05-07 20:52 | 9.11135 | -79.43391 | 2911 ft | 175 kts | 83° |
| 2026-05-07 20:53 | 9.10769 | -79.42217 | 3062 ft | 187 kts | 132° |
| 2026-05-07 20:53 | 9.09525 | -79.41710 | 3570 ft | 202 kts | 185° |
| 2026-05-07 20:53 | 9.08034 | -79.41886 | 3763 ft | 228 kts | 191° |
| 2026-05-07 20:53 | 9.06527 | -79.42408 | 4008 ft | 228 kts | 214° |
| 2026-05-07 20:54 | 9.05545 | -79.43578 | 4344 ft | 218 kts | 257° |
| 2026-05-07 20:54 | 9.05623 | -79.45065 | 4550 ft | 211 kts | 285° |
| 2026-05-07 20:54 | 9.05569 | -79.46538 | 4863 ft | 223 kts | 253° |
| 2026-05-07 20:54 | 9.04872 | -79.48020 | 5235 ft | 234 kts | 245° |
| 2026-05-07 20:55 | 9.04107 | -79.49489 | 5538 ft | 240 kts | 244° |
| 2026-05-07 20:55 | 9.03322 | -79.51006 | 5286 ft | 246 kts | 245° |
| 2026-05-07 20:55 | 9.02532 | -79.52524 | 4929 ft | 248 kts | 245° |
| 2026-05-07 20:55 | 9.01695 | -79.54074 | 4554 ft | 250 kts | 239° |
| 2026-05-07 20:56 | 9.00434 | -79.55299 | 4156 ft | 254 kts | 216° |
| 2026-05-07 20:56 | 8.98932 | -79.56260 | 3793 ft | 256 kts | 214° |
| 2026-05-07 20:56 | 8.97424 | -79.57197 | 3437 ft | 257 kts | 214° |
| 2026-05-07 20:56 | 8.95893 | -79.58137 | 3167 ft | 253 kts | 213° |
| 2026-05-07 20:57 | 8.94391 | -79.59055 | 2924 ft | 249 kts | 213° |
| 2026-05-07 20:57 | 8.92923 | -79.59947 | 2681 ft | 246 kts | 214° |
| 2026-05-07 20:57 | 8.91470 | -79.60831 | 2541 ft | 236 kts | 213° |
| 2026-05-07 20:57 | 8.90095 | -79.61666 | 2523 ft | 221 kts | 213° |
| 2026-05-07 20:58 | 8.88810 | -79.62448 | 2519 ft | 214 kts | 214° |
| 2026-05-07 20:58 | 8.87515 | -79.63233 | 2518 ft | 214 kts | 214° |
| 2026-05-07 20:58 | 8.86241 | -79.64005 | 2525 ft | 215 kts | 214° |
| 2026-05-07 20:58 | 8.84941 | -79.64790 | 2522 ft | 214 kts | 214° |
| 2026-05-07 20:59 | 8.83668 | -79.65553 | 2523 ft | 215 kts | 213° |
| 2026-05-07 20:59 | 8.82375 | -79.66328 | 2525 ft | 215 kts | 213° |
| 2026-05-07 20:59 | 8.81084 | -79.67106 | 2526 ft | 214 kts | 213° |
| 2026-05-07 20:59 | 8.79795 | -79.67890 | 2515 ft | 214 kts | 213° |
| 2026-05-07 21:00 | 8.78523 | -79.68668 | 2509 ft | 215 kts | 213° |
| 2026-05-07 21:00 | 8.77238 | -79.69450 | 2520 ft | 215 kts | 214° |
| 2026-05-07 21:00 | 8.75950 | -79.70233 | 2519 ft | 215 kts | 214° |
| 2026-05-07 21:00 | 8.74658 | -79.71016 | 2519 ft | 214 kts | 213° |
| 2026-05-07 21:01 | 8.73348 | -79.71751 | 2500 ft | 214 kts | 200° |
| 2026-05-07 21:01 | 8.71889 | -79.71838 | 2485 ft | 214 kts | 164° |
| 2026-05-07 21:01 | 8.70618 | -79.71084 | 2481 ft | 212 kts | 128° |
| 2026-05-07 21:01 | 8.70009 | -79.69788 | 2486 ft | 205 kts | 94° |
| 2026-05-07 21:02 | 8.70215 | -79.68409 | 2478 ft | 199 kts | 62° |
| 2026-05-07 21:02 | 8.71053 | -79.67313 | 2489 ft | 194 kts | 46° |
| 2026-05-07 21:02 | 8.71982 | -79.66312 | 2507 ft | 193 kts | 45° |
| 2026-05-07 21:02 | 8.72904 | -79.65323 | 2512 ft | 193 kts | 45° |
| 2026-05-07 21:03 | 8.73832 | -79.64329 | 2513 ft | 192 kts | 45° |
| 2026-05-07 21:03 | 8.74751 | -79.63345 | 2517 ft | 192 kts | 45° |
| 2026-05-07 21:03 | 8.75666 | -79.62366 | 2511 ft | 192 kts | 45° |
| 2026-05-07 21:03 | 8.76597 | -79.61369 | 2489 ft | 192 kts | 45° |
| 2026-05-07 21:04 | 8.77513 | -79.60390 | 2491 ft | 192 kts | 45° |
| 2026-05-07 21:04 | 8.78436 | -79.59404 | 2489 ft | 193 kts | 45° |
| 2026-05-07 21:04 | 8.79363 | -79.58415 | 2493 ft | 193 kts | 45° |
| 2026-05-07 21:04 | 8.80281 | -79.57436 | 2494 ft | 193 kts | 45° |
| 2026-05-07 21:05 | 8.81209 | -79.56446 | 2492 ft | 192 kts | 45° |
| 2026-05-07 21:05 | 8.82123 | -79.55473 | 2499 ft | 192 kts | 45° |
| 2026-05-07 21:05 | 8.83056 | -79.54481 | 2493 ft | 192 kts | 45° |
| 2026-05-07 21:05 | 8.83981 | -79.53498 | 2496 ft | 193 kts | 45° |
| 2026-05-07 21:06 | 8.84901 | -79.52523 | 2488 ft | 193 kts | 45° |
| 2026-05-07 21:06 | 8.85834 | -79.51536 | 2490 ft | 192 kts | 45° |
| 2026-05-07 21:06 | 8.86765 | -79.50552 | 2493 ft | 193 kts | 45° |
| 2026-05-07 21:06 | 8.87689 | -79.49581 | 2498 ft | 194 kts | 45° |
| 2026-05-07 21:07 | 8.88629 | -79.48600 | 2493 ft | 192 kts | 42° |
| 2026-05-07 21:07 | 8.89707 | -79.47785 | 2493 ft | 192 kts | 31° |
| 2026-05-07 21:07 | 8.90857 | -79.47125 | 2484 ft | 191 kts | 28° |
| 2026-05-07 21:07 | 8.92029 | -79.46468 | 2489 ft | 188 kts | 28° |
| 2026-05-07 21:08 | 8.93161 | -79.45827 | 2463 ft | 184 kts | 29° |
| 2026-05-07 21:08 | 8.94280 | -79.45193 | 2205 ft | 184 kts | 28° |
| 2026-05-07 21:08 | 8.95391 | -79.44563 | 1980 ft | 179 kts | 29° |
| 2026-05-07 21:08 | 8.96430 | -79.43973 | 1755 ft | 166 kts | 28° |
| 2026-05-07 21:09 | 8.97443 | -79.43398 | 1538 ft | 163 kts | 28° |
| 2026-05-07 21:09 | 8.98425 | -79.42844 | 1324 ft | 159 kts | 28° |
| 2026-05-07 21:09 | 8.99374 | -79.42305 | 1132 ft | 156 kts | 29° |
| 2026-05-07 21:09 | 9.00322 | -79.41768 | 944 ft | 153 kts | 29° |
| 2026-05-07 21:10 | 9.01245 | -79.41245 | 766 ft | 152 kts | 29° |
| 2026-05-07 21:10 | 9.02184 | -79.40715 | 578 ft | 152 kts | 29° |
| 2026-05-07 21:10 | 9.03110 | -79.40179 | 381 ft | 157 kts | 31° |
| 2026-05-07 21:10 | 9.04071 | -79.39639 | 184 ft | 157 kts | 28° |
| 2026-05-07 21:11 | 9.05034 | -79.39106 | 40 ft | 152 kts | 31° |
| 2026-05-07 21:11 | 9.05837 | -79.38646 | 51 ft | 111 kts | 29° |
| 2026-05-07 21:11 | 9.06412 | -79.38384 | 59 ft | 17 kts | 356° |
| 2026-05-07 21:12 | 9.06533 | -79.38383 | 62 ft | 16 kts | 358° |
| 2026-05-07 21:12 | 9.06634 | -79.38399 | 64 ft | 13 kts | 327° |
| 2026-05-07 21:12 | 9.06649 | -79.38471 | 66 ft | 10 kts | 237° |
| 2026-05-07 21:12 | 9.06588 | -79.38517 | 65 ft | 11 kts | 210° |
| 2026-05-07 21:13 | 9.06514 | -79.38554 | 63 ft | 12 kts | 205° |
| 2026-05-07 21:13 | 9.06450 | -79.38592 | 61 ft | 0 kts | 210° |